Terminal Aerodrome Forecast
Issued by NWS

Home | Current Version | Previous Version | Text Only | Print | Product List | Glossary On
Versions: 1 2 3 4 5 6 7 8 9 10 11 12 13 14 15 16 17 18 19 20 21 22
000
FTUS45 KGGW 202300
TAFOLF
TAF
KOLF 202324Z 2100/2124 02006KT P6SM FEW060 SCT250
     FM211100 07004KT 6SM BR FEW020 SCT070 BKN120
     FM211400 06009KT 6SM -RA SCT040 OVC090
     FM212100 04012KT 3SM RA SCT020 OVC040=

USA.gov is the U.S. government's official web portal to all federal, state and local government web resources and services.